Time;durP1;ratioP1;P1;durP2;ratioP2;P2;SDS_P1;SDS_P2;PMS_P1;PMS_P2;Temp;Humidity;BMP_temperature;BMP_pressure;BME280_temperature;BME280_humidity;BME280_pressure;Samples;Min_cycle;Max_cycle;Signal;HPM_P1;HPM_P2
2023/09/21 00:00:32;;;;;;;5.40;1.70;;;;;;;16.87;88.93;99899.72;4969603;28;20038;-70
2023/09/21 00:02:58;;;;;;;7.22;1.88;;;;;;;16.88;88.95;99901.31;4970368;28;20043;-70
2023/09/21 00:05:28;;;;;;;3.90;1.67;;;;;;;16.79;89.38;99899.19;4968610;28;20042;-70
2023/09/21 00:07:54;;;;;;;5.15;2.10;;;;;;;16.80;89.25;99890.31;4983816;28;20147;-70
2023/09/21 00:10:20;;;;;;;9.13;2.33;;;;;;;16.87;89.50;99884.00;4968478;28;20035;-70
2023/09/21 00:12:46;;;;;;;6.13;2.20;;;;;;;16.86;89.31;99882.41;4977125;28;20576;-70
2023/09/21 00:15:17;;;;;;;3.75;2.13;;;;;;;16.96;88.81;99875.88;4966567;28;20039;-70
2023/09/21 00:17:43;;;;;;;7.15;2.60;;;;;;;16.88;89.26;99869.91;4971363;28;20499;-70
2023/09/21 00:20:13;;;;;;;7.43;2.15;;;;;;;16.81;89.43;99868.34;4971612;28;20047;-71
2023/09/21 00:22:38;;;;;;;6.90;2.58;;;;;;;16.76;89.78;99868.19;4971531;28;20048;-70
2023/09/21 00:25:07;;;;;;;6.38;2.00;;;;;;;16.74;90.38;99866.63;4981467;28;20035;-70
2023/09/21 00:27:33;;;;;;;3.78;2.20;;;;;;;16.69;90.51;99858.63;4961911;28;20125;-70
2023/09/21 00:30:04;;;;;;;7.53;2.30;;;;;;;16.73;90.62;99858.97;4947689;28;20039;-70
2023/09/21 00:32:30;;;;;;;4.53;2.28;;;;;;;16.65;90.70;99854.84;4961775;28;20051;-70
2023/09/21 00:34:55;;;;;;;5.75;2.70;;;;;;;16.78;90.33;99848.63;4968423;28;20066;-70
2023/09/21 00:37:22;;;;;;;5.15;2.22;;;;;;;16.69;90.42;99839.50;4974629;28;20038;-70
2023/09/21 00:39:48;;;;;;;7.47;2.20;;;;;;;16.65;90.59;99848.78;4967511;28;20124;-70
2023/09/21 00:42:13;;;;;;;5.55;2.22;;;;;;;16.68;90.60;99841.31;4968436;28;20042;-70
2023/09/21 00:44:40;;;;;;;5.15;2.65;;;;;;;16.63;90.54;99837.75;4971731;28;20170;-70
2023/09/21 00:47:05;;;;;;;6.97;2.00;;;;;;;16.61;90.97;99837.16;4961027;28;20030;-70
2023/09/21 00:49:31;;;;;;;9.43;2.95;;;;;;;16.63;90.73;99838.56;4971706;28;20672;-70
2023/09/21 00:51:58;;;;;;;4.82;2.25;;;;;;;16.58;91.30;99827.94;4954103;28;20382;-70
2023/09/21 00:54:24;;;;;;;6.90;1.98;;;;;;;16.63;90.84;99825.47;4967020;28;20027;-70
2023/09/21 00:56:52;;;;;;;5.68;1.90;;;;;;;16.51;91.66;99825.38;4974654;28;20022;-70
2023/09/21 00:59:19;;;;;;;5.47;2.88;;;;;;;16.51;91.61;99821.97;4973365;28;20505;-70
2023/09/21 01:01:46;;;;;;;4.40;2.15;;;;;;;16.47;91.87;99820.81;4966114;28;20035;-70
2023/09/21 01:04:12;;;;;;;8.00;2.42;;;;;;;16.44;91.89;99823.88;4970594;28;20042;-70
2023/09/21 01:06:39;;;;;;;6.10;2.03;;;;;;;16.37;92.45;99816.09;4960806;28;20194;-70
2023/09/21 01:09:07;;;;;;;5.63;1.73;;;;;;;16.33;92.62;99818.34;4980094;28;20039;-70
2023/09/21 01:11:37;;;;;;;4.05;1.88;;;;;;;16.32;92.57;99814.13;4965615;28;20422;-70
2023/09/21 01:14:04;;;;;;;4.97;2.25;;;;;;;16.39;92.43;99810.63;4966222;28;20031;-70
2023/09/21 01:16:30;;;;;;;7.13;1.98;;;;;;;16.39;91.63;99811.44;4968025;28;20081;-70
2023/09/21 01:18:55;;;;;;;4.95;2.03;;;;;;;16.33;92.12;99813.13;4963556;28;20031;-70
2023/09/21 01:21:37;;;;;;;8.48;2.25;;;;;;;16.39;91.37;99803.59;4962791;28;20046;-70
2023/09/21 01:24:03;;;;;;;2.70;1.55;;;;;;;16.42;91.42;99799.75;4967516;28;20051;-70
2023/09/21 01:26:29;;;;;;;6.20;1.83;;;;;;;16.29;91.78;99798.06;4947909;28;20031;-70
2023/09/21 01:28:56;;;;;;;4.32;2.05;;;;;;;16.33;91.59;99796.59;4959754;28;20111;-70
2023/09/21 01:31:22;;;;;;;4.93;2.05;;;;;;;16.37;91.84;99789.94;4962729;28;20059;-70
2023/09/21 01:33:48;;;;;;;5.93;2.05;;;;;;;16.34;91.22;99791.16;4964057;28;20563;-70
2023/09/21 01:36:15;;;;;;;12.82;2.38;;;;;;;16.28;91.58;99784.19;4963828;28;20038;-70
2023/09/21 01:38:44;;;;;;;4.88;2.13;;;;;;;16.29;92.00;99784.97;4966223;28;21530;-70
2023/09/21 01:41:11;;;;;;;3.88;1.98;;;;;;;16.23;92.04;99780.63;4957863;28;20045;-70
2023/09/21 01:43:39;;;;;;;4.53;2.15;;;;;;;16.23;92.38;99778.00;4951833;28;20536;-70
2023/09/21 01:46:05;;;;;;;4.82;2.08;;;;;;;16.19;92.58;99771.63;4953048;28;20034;-70
2023/09/21 01:48:32;;;;;;;5.05;2.00;;;;;;;16.22;92.10;99772.00;4949312;28;21913;-70
2023/09/21 01:50:59;;;;;;;5.47;1.80;;;;;;;16.22;92.08;99768.56;4977552;28;20049;-70
2023/09/21 01:53:25;;;;;;;8.13;1.83;;;;;;;16.15;92.38;99752.94;4962518;28;20072;-70
2023/09/21 01:55:51;;;;;;;8.43;2.78;;;;;;;16.21;91.75;99759.13;4951284;28;20047;-70
2023/09/21 01:58:24;;;;;;;8.23;3.85;;;;;;;16.27;91.88;99753.03;4960064;28;20034;-70
2023/09/21 02:00:50;;;;;;;7.90;2.53;;;;;;;16.26;91.44;99748.81;4966075;28;20042;-70
2023/09/21 02:03:22;;;;;;;5.68;1.80;;;;;;;16.27;91.41;99751.19;4971598;28;20187;-69
2023/09/21 02:05:48;;;;;;;5.32;2.00;;;;;;;16.29;91.22;99750.97;4963870;28;20497;-70
2023/09/21 02:08:18;;;;;;;6.03;2.30;;;;;;;16.38;90.76;99744.44;4962714;28;20145;-70
2023/09/21 02:10:44;;;;;;;3.45;2.05;;;;;;;16.32;90.34;99743.50;4964994;28;20508;-70
2023/09/21 02:13:10;;;;;;;5.53;1.75;;;;;;;16.24;90.86;99732.56;4969391;28;20031;-71
2023/09/21 02:15:38;;;;;;;4.47;1.95;;;;;;;16.29;90.43;99735.28;4966747;28;20034;-70
2023/09/21 02:18:07;;;;;;;3.83;1.80;;;;;;;16.36;89.56;99730.78;4967671;28;20038;-70
2023/09/21 02:20:38;;;;;;;3.42;1.75;;;;;;;16.41;89.50;99727.53;4969633;28;20504;-70
2023/09/21 02:23:05;;;;;;;2.90;1.92;;;;;;;16.38;88.93;99720.91;4964259;28;20091;-70
2023/09/21 02:25:34;;;;;;;4.80;1.58;;;;;;;16.47;88.27;99716.97;4967968;28;20038;-70
2023/09/21 02:28:09;;;;;;;4.70;1.80;;;;;;;16.48;88.40;99713.34;4948146;28;20129;-69
2023/09/21 02:30:39;;;;;;;4.68;1.80;;;;;;;16.50;87.75;99713.09;4978576;28;20129;-70
2023/09/21 02:33:05;;;;;;;3.97;2.35;;;;;;;16.50;88.33;99718.31;4963339;28;20047;-70
2023/09/21 02:35:33;;;;;;;6.63;1.80;;;;;;;16.49;87.98;99719.34;4980519;28;20120;-70
2023/09/21 02:38:00;;;;;;;3.05;1.73;;;;;;;16.50;87.54;99713.09;4967657;28;20118;-70
2023/09/21 02:40:25;;;;;;;3.22;1.80;;;;;;;16.44;88.00;99709.53;4970267;28;20030;-70
2023/09/21 02:42:55;;;;;;;4.15;1.60;;;;;;;16.47;88.08;99706.50;4981675;28;20400;-70
2023/09/21 02:45:25;;;;;;;3.28;1.80;;;;;;;16.41;88.31;99702.16;4964738;28;20381;-70
2023/09/21 02:47:54;;;;;;;4.97;2.10;;;;;;;16.45;88.17;99695.47;4959457;28;20039;-70
2023/09/21 02:50:25;;;;;;;6.25;2.45;;;;;;;16.45;88.27;99697.28;4968781;28;20046;-70
2023/09/21 02:52:56;;;;;;;5.70;2.17;;;;;;;16.44;88.39;99686.00;4969741;28;21608;-70
2023/09/21 02:55:26;;;;;;;5.30;2.00;;;;;;;16.37;88.72;99690.53;4966259;28;20042;-70
2023/09/21 02:58:10;;;;;;;6.88;2.30;;;;;;;16.37;88.80;99690.53;4966016;28;20038;-70
2023/09/21 03:00:45;;;;;;;4.97;2.70;;;;;;;16.30;89.25;99685.38;4965764;28;20034;-70
2023/09/21 03:03:13;;;;;;;5.07;2.33;;;;;;;16.38;89.07;99683.47;4985094;28;20589;-70
2023/09/21 03:05:40;;;;;;;3.88;2.13;;;;;;;16.25;89.50;99673.97;4970181;28;20034;-70
2023/09/21 03:08:12;;;;;;;3.72;2.00;;;;;;;16.29;89.15;99675.94;4951716;28;20039;-70
2023/09/21 03:10:39;;;;;;;5.72;1.90;;;;;;;16.40;88.59;99666.53;4968646;28;20054;-70
2023/09/21 03:13:05;;;;;;;4.00;2.25;;;;;;;16.44;88.67;99669.50;4967515;28;22092;-70
2023/09/21 03:15:33;;;;;;;6.65;2.63;;;;;;;16.34;88.78;99665.59;4951957;28;20046;-70
2023/09/21 03:17:58;;;;;;;3.47;1.80;;;;;;;16.30;89.13;99672.28;4966463;28;20027;-70
2023/09/21 03:20:37;;;;;;;3.80;1.70;;;;;;;16.31;88.92;99670.47;4947867;28;20054;-70
2023/09/21 03:23:09;;;;;;;5.93;1.92;;;;;;;16.34;88.84;99664.81;4973041;28;20046;-70
2023/09/21 03:25:40;;;;;;;3.22;1.80;;;;;;;16.33;88.92;99669.25;4963312;28;20042;-70
2023/09/21 03:28:10;;;;;;;3.30;1.65;;;;;;;16.22;89.38;99663.94;4946348;28;20042;-70
2023/09/21 03:30:43;;;;;;;5.53;1.77;;;;;;;16.37;88.64;99658.31;4950817;28;20532;-70
2023/09/21 03:33:09;;;;;;;;;;;;;;;16.26;88.99;99650.22;4947615;28;20039;-70
2023/09/21 03:35:37;;;;;;;4.03;1.98;;;;;;;16.30;88.61;99640.91;4963460;28;19946;-71
2023/09/21 03:38:06;;;;;;;3.30;1.85;;;;;;;16.25;89.35;99643.38;4962425;28;20077;-70
2023/09/21 03:40:34;;;;;;;3.60;1.80;;;;;;;16.35;88.70;99645.50;4969509;28;20133;-68
2023/09/21 03:43:00;;;;;;;7.35;2.10;;;;;;;16.37;88.67;99640.84;4968989;28;20100;-68
2023/09/21 03:45:26;;;;;;;5.32;2.05;;;;;;;16.40;88.24;99635.16;4954259;28;20077;-68
2023/09/21 03:47:52;;;;;;;5.30;1.90;;;;;;;16.47;88.03;99643.69;4968307;28;20073;-68
2023/09/21 03:50:18;;;;;;;3.65;2.10;;;;;;;16.49;87.94;99639.03;4966122;28;20035;-68
2023/09/21 03:52:45;;;;;;;3.30;1.50;;;;;;;16.54;87.75;99630.53;4965920;28;20049;-68
2023/09/21 03:55:15;;;;;;;4.15;2.28;;;;;;;16.53;87.96;99629.72;4969749;28;20045;-68
2023/09/21 03:57:46;;;;;;;6.85;2.00;;;;;;;16.52;87.59;99622.91;4953865;28;20035;-68
2023/09/21 04:00:52;;;;;;;4.75;2.25;;;;;;;16.60;87.09;99627.03;4973090;28;20516;-68
2023/09/21 04:03:11;;;;;;;6.13;1.90;;;;;;;16.63;86.64;99626.59;4965074;28;20036;-69
2023/09/21 04:06:06;;;;;;;3.72;1.65;;;;;;;16.79;86.18;99609.41;4971692;28;20038;-68
2023/09/21 04:08:31;;;;;;;6.00;2.00;;;;;;;16.72;86.02;99616.56;4985295;28;20492;-69
2023/09/21 04:11:00;;;;;;;5.43;1.83;;;;;;;16.78;85.35;99602.56;4970420;28;20053;-68
2023/09/21 04:13:25;;;;;;;4.40;1.52;;;;;;;16.83;85.53;99609.81;4989132;28;20126;-68
2023/09/21 04:15:50;;;;;;;4.68;1.80;;;;;;;16.87;85.28;99597.84;4970438;28;20094;-68
2023/09/21 04:18:16;;;;;;;6.07;1.77;;;;;;;16.92;84.90;99595.34;4959402;28;20038;-68
2023/09/21 04:20:44;;;;;;;4.72;2.10;;;;;;;17.02;83.84;99600.03;4969876;28;20065;-68
2023/09/21 04:23:10;;;;;;;10.68;3.42;;;;;;;17.06;83.71;99594.09;4964534;28;20043;-69
2023/09/21 04:25:38;;;;;;;3.35;1.60;;;;;;;17.14;83.29;99606.06;4953058;28;20039;-68
2023/09/21 04:28:05;;;;;;;6.30;1.60;;;;;;;17.17;83.06;99602.19;4951924;28;20046;-68
2023/09/21 04:30:34;;;;;;;4.45;1.77;;;;;;;17.21;82.50;99603.31;4968203;28;20586;-68
2023/09/21 04:32:59;;;;;;;6.60;2.35;;;;;;;17.22;82.47;99607.56;4964748;28;20163;-68
2023/09/21 04:35:26;;;;;;;8.13;2.08;;;;;;;17.22;82.63;99608.34;4966375;28;20441;-69
2023/09/21 04:37:56;;;;;;;5.82;1.90;;;;;;;17.20;82.17;99605.16;4973580;28;20086;-69
2023/09/21 04:40:24;;;;;;;5.10;2.55;;;;;;;17.26;82.07;99598.22;4968188;28;20039;-69
2023/09/21 04:42:50;;;;;;;6.38;2.00;;;;;;;17.23;82.39;99603.91;4970828;28;20035;-68
2023/09/21 04:45:20;;;;;;;4.47;2.20;;;;;;;17.36;81.25;99600.25;4955541;28;20086;-70
2023/09/21 04:47:49;;;;;;;5.05;1.98;;;;;;;17.28;81.49;99598.78;4969105;28;20736;-69
2023/09/21 04:50:16;;;;;;;5.60;1.67;;;;;;;17.32;81.41;99595.44;4950121;28;20425;-68
2023/09/21 04:52:43;;;;;;;2.72;1.40;;;;;;;17.29;81.45;99587.25;4964643;28;20050;-69
2023/09/21 04:55:10;;;;;;;5.97;2.05;;;;;;;17.25;81.80;99588.75;4971760;28;20045;-68
2023/09/21 04:57:36;;;;;;;7.30;1.75;;;;;;;17.26;81.91;99592.97;4985836;28;20130;-68
2023/09/21 05:00:07;;;;;;;2.28;1.48;;;;;;;17.22;82.27;99589.22;4966687;28;20444;-69
2023/09/21 05:02:33;;;;;;;3.08;1.80;;;;;;;17.19;82.06;99585.22;4950683;28;20046;-68
2023/09/21 05:04:59;;;;;;;5.60;1.80;;;;;;;17.24;81.82;99593.19;4971295;28;20105;-68
2023/09/21 05:07:25;;;;;;;4.93;2.28;;;;;;;17.25;81.58;99592.19;4969157;28;20128;-68
2023/09/21 05:09:51;;;;;;;5.32;2.30;;;;;;;17.23;82.31;99593.41;4951182;28;20165;-69
2023/09/21 05:12:18;;;;;;;3.67;1.70;;;;;;;17.28;81.77;99596.16;4967269;28;20042;-68
2023/09/21 05:14:48;;;;;;;11.75;2.47;;;;;;;17.25;82.06;99601.84;4963904;28;20031;-68
2023/09/21 05:17:21;;;;;;;6.82;2.65;;;;;;;17.22;82.57;99592.63;4962152;28;20046;-69
2023/09/21 05:19:46;;;;;;;4.05;1.80;;;;;;;17.29;82.10;99598.56;4963967;28;20080;-69
2023/09/21 05:22:12;;;;;;;6.75;2.00;;;;;;;17.27;82.02;99594.53;4967550;28;22338;-69
2023/09/21 05:24:37;;;;;;;3.10;1.65;;;;;;;17.23;82.36;99598.66;4964255;28;20050;-68
2023/09/21 05:27:03;;;;;;;3.15;1.60;;;;;;;17.27;82.47;99600.59;4966596;28;20027;-69
2023/09/21 05:29:29;;;;;;;3.60;2.00;;;;;;;17.28;82.29;99604.00;4968363;28;20027;-69
2023/09/21 05:31:56;;;;;;;3.38;1.67;;;;;;;17.22;82.63;99604.94;4965437;28;20404;-68
2023/09/21 05:34:24;;;;;;;9.88;1.70;;;;;;;17.22;82.90;99603.09;4965162;28;20034;-69
2023/09/21 05:36:54;;;;;;;6.47;1.95;;;;;;;17.44;81.76;99605.13;4961874;28;20038;-69
2023/09/21 05:39:19;;;;;;;3.90;1.70;;;;;;;17.30;82.69;99594.88;4966897;28;20038;-69
2023/09/21 05:41:51;;;;;;;6.25;1.98;;;;;;;17.28;83.12;99604.00;4968906;28;20041;-69
2023/09/21 05:44:21;;;;;;;7.50;2.23;;;;;;;17.27;83.52;99611.09;4964415;28;20074;-70
2023/09/21 05:46:49;;;;;;;8.30;2.58;;;;;;;17.25;83.71;99612.31;4963751;28;20519;-70
2023/09/21 05:49:22;;;;;;;7.38;1.95;;;;;;;17.36;83.28;99619.38;4967276;28;20042;-69
2023/09/21 05:51:56;;;;;;;2.92;1.50;;;;;;;17.34;83.36;99623.25;4946786;28;20572;-70
2023/09/21 05:54:26;;;;;;;4.80;1.83;;;;;;;17.41;83.33;99619.50;4967253;28;20031;-69
2023/09/21 05:56:55;;;;;;;6.38;1.55;;;;;;;17.45;83.33;99622.44;4965312;28;20440;-69
2023/09/21 05:59:22;;;;;;;4.00;1.75;;;;;;;17.58;82.77;99621.41;4966344;28;20038;-69
2023/09/21 06:01:48;;;;;;;4.35;1.70;;;;;;;17.61;82.87;99615.69;4964975;28;20022;-69
2023/09/21 06:04:17;;;;;;;6.63;1.88;;;;;;;17.58;83.28;99621.41;4963178;28;20058;-68
2023/09/21 06:06:47;;;;;;;4.72;2.35;;;;;;;17.64;82.45;99613.41;4966564;28;20457;-68
2023/09/21 06:09:18;;;;;;;4.22;1.60;;;;;;;17.74;82.35;99606.78;4968837;28;20074;-69
2023/09/21 06:11:45;;;;;;;6.75;2.08;;;;;;;17.77;82.44;99603.72;4970844;28;20049;-69
2023/09/21 06:14:11;;;;;;;6.97;2.00;;;;;;;17.81;82.23;99607.47;4971415;28;20039;-69
2023/09/21 06:16:36;;;;;;;4.90;1.98;;;;;;;17.85;81.96;99608.59;4969782;28;20058;-69
2023/09/21 06:19:02;;;;;;;3.83;1.90;;;;;;;17.91;81.97;99597.19;4952191;28;20085;-69
2023/09/21 06:21:30;;;;;;;5.93;1.90;;;;;;;18.08;81.31;99590.19;4966937;28;20145;-69
2023/09/21 06:23:56;;;;;;;5.53;2.10;;;;;;;18.06;82.08;99592.25;4965740;28;20045;-69
2023/09/21 06:26:22;;;;;;;3.95;1.60;;;;;;;18.12;81.49;99590.50;4959425;28;20042;-69
2023/09/21 06:28:48;;;;;;;4.45;1.85;;;;;;;18.18;81.11;99586.16;4959832;28;20121;-69
2023/09/21 06:31:14;;;;;;;6.70;1.92;;;;;;;18.35;81.08;99576.47;4967479;28;20514;-69
2023/09/21 06:33:40;;;;;;;3.13;1.50;;;;;;;18.62;80.28;99579.28;4961807;28;20053;-69
2023/09/21 06:36:14;;;;;;;7.22;2.17;;;;;;;18.88;78.51;99576.28;4968862;28;20038;-69
2023/09/21 06:38:43;;;;;;;4.97;1.75;;;;;;;19.13;77.72;99579.25;4965459;28;20429;-68
2023/09/21 06:41:09;;;;;;;4.32;1.70;;;;;;;19.48;75.47;99561.56;4965248;28;20050;-68
2023/09/21 06:43:37;;;;;;;5.70;1.90;;;;;;;19.92;73.72;99566.84;4968979;28;20047;-68
2023/09/21 06:46:03;;;;;;;6.40;2.13;;;;;;;20.66;70.38;99565.41;4971231;28;20066;-69
2023/09/21 06:48:29;;;;;;;11.23;1.90;;;;;;;21.00;69.29;99566.72;4967570;28;20038;-69
2023/09/21 06:50:54;;;;;;;6.47;1.90;;;;;;;21.53;67.10;99556.19;4968763;28;20042;-69
2023/09/21 06:53:20;;;;;;;4.03;2.00;;;;;;;21.49;66.52;99568.28;4964968;28;20712;-69
2023/09/21 06:55:45;;;;;;;6.47;2.08;;;;;;;21.78;65.28;99567.84;4963793;28;20031;-69
2023/09/21 06:58:11;;;;;;;11.02;1.90;;;;;;;21.75;65.19;99573.63;4962324;28;20053;-70
2023/09/21 07:00:37;;;;;;;6.88;1.83;;;;;;;21.68;64.96;99573.91;4964253;28;20094;-69
2023/09/21 07:03:03;;;;;;;5.28;2.13;;;;;;;21.84;66.31;99573.94;4961492;28;20575;-69
2023/09/21 07:05:29;;;;;;;6.68;1.92;;;;;;;22.41;64.20;99572.19;4967456;28;20046;-69
2023/09/21 07:07:54;;;;;;;4.47;2.00;;;;;;;22.68;62.06;99590.44;4965149;28;20047;-70
2023/09/21 07:10:20;;;;;;;3.33;1.80;;;;;;;22.71;61.79;99584.59;4967160;28;20053;-69
2023/09/21 07:12:45;;;;;;;4.35;1.80;;;;;;;22.25;63.15;99581.94;4972310;28;20050;-69
2023/09/21 07:15:11;;;;;;;3.25;1.70;;;;;;;21.93;65.02;99585.56;4966839;28;20047;-69
2023/09/21 07:17:36;;;;;;;7.13;2.28;;;;;;;22.21;64.80;99576.38;4952521;28;20461;-69
2023/09/21 07:20:06;;;;;;;5.45;2.40;;;;;;;22.63;62.78;99582.50;4974524;28;20031;-69
2023/09/21 07:22:32;;;;;;;3.97;2.00;;;;;;;22.90;61.43;99580.34;4963655;28;20073;-69
2023/09/21 07:24:59;;;;;;;3.42;1.83;;;;;;;22.92;62.19;99580.06;4985312;28;20122;-69
2023/09/21 07:27:25;;;;;;;5.35;2.00;;;;;;;22.86;61.97;99576.66;4969502;28;20173;-69
2023/09/21 07:29:53;;;;;;;3.47;1.58;;;;;;;22.80;62.89;99576.94;4965424;28;20456;-69
2023/09/21 07:32:20;;;;;;;2.67;1.48;;;;;;;22.48;63.77;99580.66;4969693;28;20077;-69
2023/09/21 07:34:48;;;;;;;5.28;1.90;;;;;;;23.03;63.07;99563.16;4970619;28;20039;-69
2023/09/21 07:37:16;;;;;;;6.30;1.98;;;;;;;24.06;59.77;99560.09;4971348;28;20031;-69
2023/09/21 07:39:42;;;;;;;5.32;2.10;;;;;;;24.28;56.34;99551.72;4969988;28;20409;-70
2023/09/21 07:42:08;;;;;;;5.03;1.65;;;;;;;24.00;57.34;99561.97;4970616;28;20038;-70
2023/09/21 07:44:33;;;;;;;4.05;1.63;;;;;;;23.47;59.83;99557.22;4970577;28;20060;-69
2023/09/21 07:46:59;;;;;;;7.03;1.95;;;;;;;23.39;60.48;99562.25;4973114;28;20035;-69
2023/09/21 07:49:25;;;;;;;8.02;2.03;;;;;;;23.09;61.54;99561.28;4957505;28;20039;-69
2023/09/21 07:51:56;;;;;;;3.63;2.05;;;;;;;23.12;60.61;99566.84;4971429;28;20528;-70
2023/09/21 07:54:22;;;;;;;5.57;2.05;;;;;;;23.19;61.29;99557.81;4967323;28;20041;-69
2023/09/21 07:56:48;;;;;;;4.78;1.85;;;;;;;23.12;61.06;99553.63;4973520;28;20034;-71
2023/09/21 07:59:14;;;;;;;4.38;1.90;;;;;;;23.06;62.99;99573.22;4955356;28;20026;-69
2023/09/21 08:01:40;;;;;;;4.50;1.98;;;;;;;23.49;60.89;99562.25;4974302;28;20053;-69
2023/09/21 08:04:07;;;;;;;3.90;1.92;;;;;;;23.91;60.22;99566.28;4970611;28;20497;-69
2023/09/21 08:06:33;;;;;;;3.97;1.75;;;;;;;24.14;58.06;99566.66;4972068;28;20121;-69
2023/09/21 08:08:58;;;;;;;4.88;1.67;;;;;;;24.17;58.13;99574.84;4989030;28;20473;-70
2023/09/21 08:11:24;;;;;;;8.02;2.20;;;;;;;23.80;58.91;99580.63;4958816;28;20043;-70
2023/09/21 08:13:49;;;;;;;5.63;1.85;;;;;;;24.07;59.32;99582.84;4973029;28;20047;-70
2023/09/21 08:16:15;;;;;;;7.13;2.13;;;;;;;24.39;59.02;99573.59;4951703;28;20042;-70
2023/09/21 08:18:41;;;;;;;4.53;1.83;;;;;;;24.15;58.76;99574.31;4970363;28;20050;-70
2023/09/21 08:21:09;;;;;;;6.32;1.90;;;;;;;23.98;60.20;99574.69;4966398;28;20050;-70
2023/09/21 08:23:35;;;;;;;6.13;2.15;;;;;;;23.86;59.74;99580.31;4969356;28;20038;-69
2023/09/21 08:26:02;;;;;;;15.18;1.98;;;;;;;23.54;62.23;99583.34;4975011;28;20042;-69
2023/09/21 08:28:29;;;;;;;4.03;1.92;;;;;;;23.55;62.10;99592.88;4968704;28;20092;-69
2023/09/21 08:30:55;;;;;;;4.60;1.70;;;;;;;23.27;63.58;99592.44;4970538;28;20657;-70
2023/09/21 08:33:22;;;;;;;5.20;1.80;;;;;;;23.33;64.10;99594.00;4969356;28;20051;-69
2023/09/21 08:35:48;;;;;;;3.08;1.95;;;;;;;23.37;63.74;99599.56;4971500;28;20097;-70
2023/09/21 08:38:13;;;;;;;5.05;1.92;;;;;;;23.01;64.36;99596.97;4973648;28;20441;-73
2023/09/21 08:40:43;;;;;;;6.03;1.88;;;;;;;22.69;66.70;99605.19;4969537;28;20057;-71
2023/09/21 08:43:24;;;;;;;5.55;1.77;;;;;;;22.47;67.06;99606.28;4976246;28;20452;-70
2023/09/21 08:45:51;;;;;;;5.75;1.90;;;;;;;22.42;67.74;99613.41;4982127;28;20046;-70
2023/09/21 08:48:22;;;;;;;4.18;1.63;;;;;;;22.35;67.71;99595.94;4972553;28;20045;-69
2023/09/21 08:50:52;;;;;;;5.70;2.22;;;;;;;22.40;68.03;99597.81;4971478;28;20043;-70
2023/09/21 08:53:23;;;;;;;7.05;1.77;;;;;;;22.28;69.67;99599.91;4972519;28;20038;-71
2023/09/21 08:55:55;;;;;;;8.35;1.92;;;;;;;22.35;69.57;99595.94;4968711;28;20141;-71
2023/09/21 08:58:27;;;;;;;4.83;1.70;;;;;;;22.51;68.39;99604.69;4973475;28;20101;-70
2023/09/21 09:00:55;;;;;;;4.82;2.50;;;;;;;22.35;68.97;99609.16;4962680;28;20471;-70
2023/09/21 09:03:25;;;;;;;11.00;1.95;;;;;;;22.22;69.67;99603.56;4969964;28;20848;-70
2023/09/21 09:05:55;;;;;;;7.75;2.08;;;;;;;22.09;70.74;99621.47;4950208;28;20126;-70
2023/09/21 09:08:21;;;;;;;10.55;2.25;;;;;;;22.15;69.10;99625.75;4972139;28;20113;-70
2023/09/21 09:10:46;;;;;;;7.82;2.00;;;;;;;22.14;70.78;99631.28;4969043;28;20043;-70
2023/09/21 09:13:12;;;;;;;6.85;1.92;;;;;;;22.09;71.39;99632.03;4956466;28;20046;-70
2023/09/21 09:15:38;;;;;;;4.88;1.80;;;;;;;22.10;71.13;99624.94;4969509;28;20058;-70
2023/09/21 09:18:05;;;;;;;4.90;1.60;;;;;;;22.04;71.52;99631.22;4963166;28;20220;-70
2023/09/21 09:20:32;;;;;;;8.30;2.60;;;;;;;22.00;70.30;99625.72;4967331;28;20046;-70
2023/09/21 09:23:01;;;;;;;7.35;1.70;;;;;;;21.86;69.85;99627.25;4968147;28;20039;-70
2023/09/21 09:25:26;;;;;;;4.68;1.45;;;;;;;21.97;70.11;99624.38;4966949;28;20057;-69
2023/09/21 09:27:52;;;;;;;4.43;1.70;;;;;;;21.91;70.05;99630.69;4968669;28;20039;-69
2023/09/21 09:30:20;;;;;;;6.55;1.40;;;;;;;21.96;70.09;99627.25;4972383;28;20049;-69
2023/09/21 09:32:47;;;;;;;8.43;1.90;;;;;;;21.83;70.50;99635.66;4964283;28;20042;-70
2023/09/21 09:35:17;;;;;;;3.67;1.83;;;;;;;21.87;71.06;99632.25;4964886;28;20169;-69
2023/09/21 09:37:44;;;;;;;7.75;1.85;;;;;;;21.77;71.28;99627.75;4967598;28;20509;-70
2023/09/21 09:40:13;;;;;;;7.28;1.73;;;;;;;21.81;71.85;99624.56;4961337;28;20117;-70
2023/09/21 09:42:46;;;;;;;8.90;1.73;;;;;;;21.86;71.89;99632.50;4965848;28;20042;-70
2023/09/21 09:45:32;;;;;;;6.68;1.73;;;;;;;21.78;72.50;99624.03;4959602;28;20478;-70
2023/09/21 09:48:01;;;;;;;4.60;1.92;;;;;;;21.80;71.81;99625.63;4964119;28;20049;-70
2023/09/21 09:50:33;;;;;;;7.20;1.95;;;;;;;21.71;73.26;99625.34;4966450;28;20096;-70
2023/09/21 09:53:03;;;;;;;4.68;1.75;;;;;;;21.74;72.15;99619.56;4964051;28;20041;-70
2023/09/21 09:55:29;;;;;;;6.15;1.95;;;;;;;21.76;72.83;99618.22;4964457;28;20049;-70
2023/09/21 09:57:57;;;;;;;4.03;1.58;;;;;;;21.76;71.36;99620.88;4963715;28;20038;-70
2023/09/21 10:00:27;;;;;;;8.65;1.52;;;;;;;21.86;71.96;99614.03;4968396;28;20154;-69
2023/09/21 10:02:55;;;;;;;4.10;1.60;;;;;;;21.75;73.17;99611.34;4961181;28;20043;-69
2023/09/21 10:05:20;;;;;;;5.07;1.85;;;;;;;21.86;72.27;99617.47;4962050;28;20104;-70
2023/09/21 10:07:49;;;;;;;12.55;1.70;;;;;;;21.89;73.05;99605.63;4978306;28;20068;-69
2023/09/21 10:10:19;;;;;;;7.97;1.88;;;;;;;21.92;74.21;99603.22;4963615;28;20045;-70
2023/09/21 10:12:49;;;;;;;5.45;1.80;;;;;;;21.94;72.67;99593.22;4964960;28;20137;-69
2023/09/21 10:15:16;;;;;;;5.40;1.40;;;;;;;22.04;72.52;99596.94;4962872;28;20050;-69
2023/09/21 10:17:42;;;;;;;9.57;1.65;;;;;;;21.95;71.75;99600.09;4961327;28;20034;-68
2023/09/21 10:20:15;;;;;;;4.65;1.65;;;;;;;21.88;74.32;99598.75;4965457;28;20460;-69
2023/09/21 10:22:43;;;;;;;;;;;;;;;21.88;72.81;99594.25;4965613;28;20043;-68
2023/09/21 10:25:10;;;;;;;6.30;1.70;;;;;;;21.85;72.34;99594.78;4964613;28;19977;-69
2023/09/21 10:30:15;;;;;;;4.85;2.05;;;;;;;21.79;72.74;99582.63;4945829;28;20441;-68
2023/09/21 10:32:52;;;;;;;4.93;1.60;;;;;;;21.98;70.94;99588.19;4934361;28;20047;-68
2023/09/21 10:35:44;;;;;;;6.40;1.73;;;;;;;22.04;72.21;99591.66;4938352;28;20047;-67
2023/09/21 10:38:17;;;;;;;3.95;1.50;;;;;;;22.14;72.25;99587.19;4936846;28;20046;-67
2023/09/21 10:40:43;;;;;;;4.80;1.33;;;;;;;22.23;70.50;99582.19;4952540;28;20086;-67
2023/09/21 10:43:36;;;;;;;5.13;1.60;;;;;;;22.19;71.76;99572.41;4971271;28;20038;-68
2023/09/21 10:46:03;;;;;;;;;;;;;;;22.21;71.10;99581.66;4956110;28;20053;-67
2023/09/21 10:48:30;;;;;;;2.63;1.35;;;;;;;22.13;71.44;99576.88;4969614;28;20303;-67
2023/09/21 10:50:56;;;;;;;8.98;1.60;;;;;;;;;;4958743;28;20049;-67
2023/09/21 10:53:23;;;;;;;5.47;1.58;;;;;;;22.10;71.04;99580.06;4971866;28;20055;-67
2023/09/21 10:55:49;;;;;;;4.20;1.50;;;;;;;22.11;71.87;99573.72;4941940;28;20398;-67
2023/09/21 10:58:17;;;;;;;3.25;1.30;;;;;;;22.09;71.05;99570.56;4954188;28;20061;-67
2023/09/21 11:00:43;;;;;;;6.97;1.60;;;;;;;22.05;71.24;99572.13;4972760;28;20039;-67
2023/09/21 11:03:13;;;;;;;3.90;1.67;;;;;;;21.91;71.95;99571.84;4972766;28;22392;-67
2023/09/21 11:05:39;;;;;;;3.55;1.55;;;;;;;21.79;72.31;99556.25;4977476;28;20050;-67
2023/09/21 11:08:06;;;;;;;7.03;1.50;;;;;;;21.72;72.73;99553.84;4958014;28;20061;-67
2023/09/21 11:10:33;;;;;;;4.60;1.35;;;;;;;21.67;72.07;99551.19;4975542;28;20038;-67
2023/09/21 11:12:58;;;;;;;4.78;1.50;;;;;;;21.69;73.11;99535.13;4972798;28;20125;-67
2023/09/21 11:15:25;;;;;;;6.18;1.90;;;;;;;21.71;73.11;99539.06;4959332;28;20093;-67
2023/09/21 11:17:51;;;;;;;6.85;1.83;;;;;;;21.81;73.05;99532.25;4971678;28;20053;-67
2023/09/21 11:20:20;;;;;;;4.65;1.55;;;;;;;21.69;73.18;99535.91;4977168;28;20053;-67
2023/09/21 11:22:48;;;;;;;2.58;1.67;;;;;;;21.59;73.43;99538.53;4975467;28;20382;-67
2023/09/21 11:25:16;;;;;;;3.42;1.70;;;;;;;21.67;73.28;99534.59;4956394;28;20077;-67
2023/09/21 11:27:43;;;;;;;2.70;1.48;;;;;;;21.60;73.56;99520.84;4945766;28;20509;-67
2023/09/21 11:30:13;;;;;;;3.03;1.30;;;;;;;21.57;73.48;99532.72;4974241;28;20042;-67
2023/09/21 11:32:45;;;;;;;2.75;1.50;;;;;;;21.58;73.93;99521.88;4953877;28;20038;-67
2023/09/21 11:35:11;;;;;;;;;;;;;;;21.47;74.05;99517.63;4956525;28;20038;-67
2023/09/21 11:37:37;;;;;;;4.47;1.25;;;;;;;21.60;73.99;99515.56;4959149;28;19968;-67
2023/09/21 11:40:11;;;;;;;3.08;1.40;;;;;;;21.49;74.36;99512.91;4962378;28;20110;-67